Time;durP1;ratioP1;P1;durP2;ratioP2;P2;SDS_P1;SDS_P2;PMS_P1;PMS_P2;Temp;Humidity;BMP_temperature;BMP_pressure;BME280_temperature;BME280_humidity;BME280_pressure;Samples;Min_cycle;Max_cycle;Signal;HPM_P1;HPM_P2
2022/02/07 00:01:56;;;;;;;2.13;1.00;;;2.80;99.70;;;;;;5054062;28;20930;-66
2022/02/07 00:04:28;;;;;;;1.97;1.07;;;2.80;99.70;;;;;;5053932;28;20443;-66
2022/02/07 00:06:55;;;;;;;2.00;1.10;;;2.60;99.70;;;;;;5053698;28;20470;-66
2022/02/07 00:09:21;;;;;;;2.13;1.10;;;2.70;99.70;;;;;;5053555;28;20460;-66
2022/02/07 00:11:48;;;;;;;1.90;1.00;;;2.70;99.70;;;;;;5053778;28;20444;-66
2022/02/07 00:14:15;;;;;;;2.00;1.00;;;2.70;99.70;;;;;;5053764;28;20986;-66
2022/02/07 00:16:43;;;;;;;2.27;1.00;;;2.80;99.70;;;;;;5053380;28;20931;-66
2022/02/07 00:19:17;;;;;;;2.07;0.93;;;3.00;99.70;;;;;;5053438;28;20545;-66
2022/02/07 00:21:45;;;;;;;2.73;1.00;;;3.00;99.70;;;;;;5053611;28;20447;-66
2022/02/07 00:24:12;;;;;;;3.40;1.10;;;3.10;99.70;;;;;;5053597;28;20447;-66
2022/02/07 00:26:38;;;;;;;2.57;1.00;;;2.90;99.70;;;;;;5053166;28;20439;-66
2022/02/07 00:29:05;;;;;;;2.10;1.23;;;2.70;99.70;;;;;;5053197;28;20978;-66
2022/02/07 00:31:33;;;;;;;2.00;1.00;;;2.70;99.70;;;;;;5053395;28;20447;-66
2022/02/07 00:34:00;;;;;;;1.97;1.10;;;2.80;99.70;;;;;;5053335;28;20945;-67
2022/02/07 00:36:30;;;;;;;2.03;1.10;;;2.70;99.70;;;;;;5053049;28;20436;-66
2022/02/07 00:39:01;;;;;;;3.30;1.00;;;2.80;99.70;;;;;;5052952;28;20554;-66
2022/02/07 00:41:36;;;;;;;2.57;1.00;;;2.80;99.70;;;;;;5053227;28;20741;-66
2022/02/07 00:44:11;;;;;;;2.50;1.40;;;2.80;99.70;;;;;;5053187;28;20581;-66
2022/02/07 00:46:46;;;;;;;2.50;1.10;;;2.90;99.70;;;;;;5052852;28;20501;-66
2022/02/07 00:49:13;;;;;;;2.10;1.10;;;3.00;99.70;;;;;;5052890;28;20532;-66
2022/02/07 00:51:41;;;;;;;2.00;1.00;;;3.10;99.70;;;;;;5052975;28;20443;-66
2022/02/07 00:54:08;;;;;;;2.37;1.10;;;3.20;99.70;;;;;;5052920;28;20484;-67
2022/02/07 00:56:35;;;;;;;2.10;1.20;;;3.30;99.70;;;;;;5052571;28;20440;-66
2022/02/07 00:59:01;;;;;;;2.00;1.20;;;3.20;99.70;;;;;;5052126;28;20478;-65
2022/02/07 01:01:28;;;;;;;2.10;1.00;;;3.20;99.70;;;;;;5052855;28;20447;-66
2022/02/07 01:03:55;;;;;;;2.33;1.10;;;3.20;99.70;;;;;;5052766;28;20824;-66
2022/02/07 01:06:21;;;;;;;2.93;1.20;;;3.20;99.70;;;;;;5052468;28;20447;-66
2022/02/07 01:08:53;;;;;;;2.93;1.00;;;3.20;99.70;;;;;;5052443;28;20463;-66
2022/02/07 01:11:33;;;;;;;4.23;1.20;;;3.30;99.70;;;;;;5052625;28;20452;-67
2022/02/07 01:14:12;;;;;;;1.90;1.00;;;3.30;99.70;;;;;;5052489;28;20479;-66
2022/02/07 01:17:02;;;;;;;2.10;1.00;;;3.20;99.70;;;;;;5052283;28;20526;-66
2022/02/07 01:19:55;;;;;;;2.00;1.10;;;3.20;99.70;;;;;;5052384;28;20448;-66
2022/02/07 01:22:46;;;;;;;2.50;1.10;;;3.20;99.70;;;;;;5052422;28;20484;-66
2022/02/07 01:50:45;;;;;;;2.00;1.00;;;3.60;99.70;;;;;;5038625;28;20510;-67
2022/02/07 01:53:24;;;;;;;3.40;1.10;;;3.60;99.70;;;;;;5051842;28;21026;-66
2022/02/07 01:55:55;;;;;;;3.10;1.20;;;3.70;99.70;;;;;;5051748;28;20443;-66
2022/02/07 01:58:25;;;;;;;2.10;1.10;;;3.70;99.70;;;;;;5098835;22;20500;-66
2022/02/07 02:00:52;;;;;;;1.90;1.00;;;3.60;99.70;;;;;;5110333;28;20954;-66
2022/02/07 02:03:19;;;;;;;2.20;1.00;;;3.60;99.70;;;;;;5112220;28;20791;-66
2022/02/07 02:05:46;;;;;;;2.50;1.40;;;3.70;99.70;;;;;;5111886;28;20441;-66
2022/02/07 02:08:16;;;;;;;2.43;1.10;;;3.70;99.70;;;;;;5118447;27;20483;-65
2022/02/07 02:10:45;;;;;;;3.83;1.20;;;3.70;99.70;;;;;;5132572;27;20804;-66
2022/02/07 02:13:15;;;;;;;3.50;1.20;;;3.90;99.70;;;;;;5132525;27;20777;-66
2022/02/07 02:15:49;;;;;;;3.03;1.27;;;3.80;99.70;;;;;;5132279;27;20492;-66
2022/02/07 02:37:44;;;;;;;6.90;1.40;;;4.00;99.70;;;;;;5132288;28;20431;-65
2022/02/07 02:45:43;;;;;;;2.10;1.20;;;4.00;99.70;;;;;;5131982;28;20468;-65
2022/02/07 02:48:18;;;;;;;2.30;1.30;;;4.10;99.70;;;;;;5131969;28;20552;-65
2022/02/07 02:50:48;;;;;;;6.33;1.40;;;4.00;99.70;;;;;;5132176;28;20894;-65
2022/02/07 02:53:16;;;;;;;3.10;1.50;;;4.10;99.70;;;;;;5132073;28;20464;-66
2022/02/07 02:55:45;;;;;;;3.43;1.40;;;4.00;99.70;;;;;;5131773;28;20447;-64
2022/02/07 02:58:15;;;;;;;3.23;1.40;;;4.00;99.70;;;;;;5132060;27;20468;-65
2022/02/07 03:00:43;;;;;;;8.27;1.70;;;3.80;99.70;;;;;;5131820;28;20440;-66
2022/02/07 03:03:10;;;;;;;3.00;1.57;;;3.70;99.70;;;;;;5132113;28;20443;-65
2022/02/07 03:05:37;;;;;;;4.57;1.57;;;3.50;99.70;;;;;;5131786;28;20823;-65
2022/02/07 03:08:05;;;;;;;2.73;1.40;;;3.60;99.70;;;;;;5131787;28;20462;-66
2022/02/07 03:10:43;;;;;;;3.43;1.37;;;3.60;99.70;;;;;;5131944;27;20989;-66
2022/02/07 03:13:14;;;;;;;5.10;1.40;;;3.70;99.70;;;;;;5135687;27;20443;-66
2022/02/07 03:18:26;;;;;;;2.70;1.40;;;3.80;99.70;;;;;;5135908;27;20524;-66
2022/02/07 03:20:54;;;;;;;3.60;1.67;;;3.80;99.70;;;;;;5135876;27;20935;-66
2022/02/07 03:23:21;;;;;;;2.60;1.50;;;3.80;99.70;;;;;;5135784;27;20432;-66
2022/02/07 03:25:48;;;;;;;4.40;1.53;;;3.70;99.70;;;;;;5135501;27;20444;-66
2022/02/07 03:28:17;;;;;;;3.00;1.50;;;3.90;99.70;;;;;;5135495;27;20460;-66
2022/02/07 03:30:43;;;;;;;4.13;1.60;;;3.90;99.70;;;;;;5135559;27;20446;-66
2022/02/07 03:33:10;;;;;;;3.93;1.60;;;3.90;99.70;;;;;;5135495;27;20440;-65
2022/02/07 03:35:38;;;;;;;4.40;1.60;;;3.90;99.70;;;;;;5135361;27;20981;-66
2022/02/07 03:38:06;;;;;;;4.00;1.60;;;3.90;99.70;;;;;;5135419;27;20508;-66
2022/02/07 03:40:33;;;;;;;4.17;1.70;;;3.90;99.70;;;;;;5135420;27;20443;-66
2022/02/07 03:43:00;;;;;;;5.60;2.27;;;3.80;99.70;;;;;;5135290;27;20930;-66
2022/02/07 03:45:28;;;;;;;6.13;1.70;;;3.70;99.70;;;;;;5135088;27;20440;-66
2022/02/07 03:47:54;;;;;;;4.90;1.70;;;3.70;99.70;;;;;;5135060;27;20486;-66
2022/02/07 03:50:21;;;;;;;4.87;1.33;;;3.60;99.70;;;;;;5135095;27;20440;-65
2022/02/07 03:52:50;;;;;;;2.67;1.30;;;3.30;99.70;;;;;;5135292;27;20444;-66
2022/02/07 03:55:17;;;;;;;2.67;1.37;;;3.00;99.70;;;;;;5134787;27;20467;-66
2022/02/07 03:57:44;;;;;;;2.93;1.17;;;2.40;99.70;;;;;;5134767;27;20455;-65
2022/02/07 04:00:12;;;;;;;2.07;1.10;;;2.40;99.70;;;;;;5134706;27;20448;-66
2022/02/07 04:02:43;;;;;;;3.30;1.20;;;2.20;99.70;;;;;;5135132;27;20436;-66
2022/02/07 04:05:35;;;;;;;3.17;1.00;;;2.20;99.70;;;;;;5134802;27;20450;-65
2022/02/07 04:08:02;;;;;;;2.00;1.20;;;2.00;99.70;;;;;;5134786;27;20459;-65
2022/02/07 04:10:34;;;;;;;2.20;1.17;;;2.10;99.70;;;;;;5134891;27;20830;-66
2022/02/07 04:13:04;;;;;;;2.57;1.23;;;2.20;99.70;;;;;;5134906;27;20451;-66
2022/02/07 04:15:31;;;;;;;2.50;1.20;;;2.20;99.70;;;;;;5134516;27;20482;-66
2022/02/07 04:18:03;;;;;;;2.53;1.20;;;2.20;99.70;;;;;;5134571;27;20498;-66
2022/02/07 04:20:29;;;;;;;2.60;1.20;;;2.30;99.70;;;;;;5134778;27;20444;-66
2022/02/07 04:22:56;;;;;;;2.70;1.30;;;2.40;99.70;;;;;;5134272;27;20443;-66
2022/02/07 04:25:23;;;;;;;1.93;1.20;;;2.30;99.70;;;;;;5134301;27;20818;-65
2022/02/07 04:27:50;;;;;;;4.87;1.30;;;2.20;99.70;;;;;;5134333;27;20966;-66
2022/02/07 04:30:17;;;;;;;2.30;1.40;;;2.30;99.70;;;;;;5134542;27;20432;-66
2022/02/07 04:32:43;;;;;;;2.67;1.23;;;2.30;99.70;;;;;;5134478;27;20447;-65
2022/02/07 04:35:12;;;;;;;3.80;1.33;;;2.10;99.70;;;;;;5134138;27;20476;-66
2022/02/07 04:37:38;;;;;;;3.53;1.40;;;2.20;99.70;;;;;;5134283;27;20437;-64
2022/02/07 04:40:06;;;;;;;3.60;1.33;;;2.20;99.70;;;;;;5134296;27;20440;-66
2022/02/07 04:42:33;;;;;;;2.00;1.10;;;2.30;99.70;;;;;;5134312;27;20444;-65
2022/02/07 04:45:16;;;;;;;2.73;1.20;;;2.30;99.70;;;;;;5134028;27;20967;-65
2022/02/07 04:47:59;;;;;;;3.97;1.30;;;2.30;99.70;;;;;;5134196;27;20479;-66
2022/02/07 04:50:36;;;;;;;2.50;1.20;;;2.30;99.70;;;;;;5134389;27;20448;-65
2022/02/07 04:53:22;;;;;;;3.60;1.30;;;2.30;99.70;;;;;;5134154;27;20440;-65
2022/02/07 04:56:02;;;;;;;2.27;1.30;;;2.30;99.70;;;;;;5133786;27;20476;-65
2022/02/07 04:58:40;;;;;;;3.47;1.50;;;2.50;99.70;;;;;;5133793;27;20533;-65
2022/02/07 05:01:12;;;;;;;2.83;1.20;;;2.50;99.70;;;;;;5133715;27;20446;-66
2022/02/07 05:03:44;;;;;;;3.03;1.60;;;2.40;99.70;;;;;;5133981;27;20448;-66
2022/02/07 05:14:26;;;;;;;5.07;1.70;;;2.30;99.70;;;;;;5133737;27;20471;-65
2022/02/07 05:16:54;;;;;;;3.40;1.87;;;2.30;99.70;;;;;;5133456;27;20440;-65
2022/02/07 05:19:21;;;;;;;2.70;1.50;;;2.20;99.70;;;;;;5133538;27;20860;-65
2022/02/07 05:21:49;;;;;;;2.77;1.60;;;2.30;99.70;;;;;;5133845;27;20443;-65
2022/02/07 05:24:16;;;;;;;4.53;1.70;;;2.20;99.70;;;;;;5133421;27;20436;-65
2022/02/07 05:26:44;;;;;;;6.00;2.23;;;2.00;99.70;;;;;;5133118;27;20444;-65
2022/02/07 05:29:10;;;;;;;3.47;1.50;;;2.20;99.70;;;;;;5133333;27;20460;-65
2022/02/07 05:31:37;;;;;;;5.20;1.70;;;2.40;99.70;;;;;;5133305;27;20440;-65
2022/02/07 05:34:06;;;;;;;6.03;1.60;;;2.50;99.70;;;;;;5132577;27;20475;-65
2022/02/07 05:36:37;;;;;;;3.97;2.47;;;2.40;99.70;;;;;;5133046;27;20444;-64
2022/02/07 05:39:06;;;;;;;5.03;1.50;;;2.30;99.70;;;;;;5133009;27;20464;-65
2022/02/07 05:41:33;;;;;;;5.67;1.70;;;2.30;99.70;;;;;;5133157;27;20444;-65
2022/02/07 05:43:59;;;;;;;7.87;2.60;;;2.20;99.70;;;;;;5133084;27;20440;-65
2022/02/07 05:46:26;;;;;;;12.40;4.40;;;2.20;99.70;;;;;;5132953;27;20450;-64
2022/02/07 05:48:53;;;;;;;11.37;4.30;;;2.30;99.70;;;;;;5132815;27;21043;-65
2022/02/07 05:51:20;;;;;;;5.10;2.17;;;2.30;99.70;;;;;;5132864;27;20444;-65
2022/02/07 05:53:46;;;;;;;5.13;2.80;;;2.50;99.70;;;;;;5132806;27;20782;-65
2022/02/07 05:56:15;;;;;;;4.10;1.80;;;2.60;99.70;;;;;;5132581;27;20455;-65
2022/02/07 05:58:41;;;;;;;5.83;1.70;;;2.50;99.70;;;;;;5132520;27;20464;-65
2022/02/07 06:01:08;;;;;;;6.70;1.60;;;2.50;99.70;;;;;;5128471;27;20464;-66
2022/02/07 06:03:35;;;;;;;8.00;1.83;;;2.60;99.70;;;;;;5123477;27;20444;-65
2022/02/07 06:06:03;;;;;;;6.17;1.53;;;2.60;99.70;;;;;;5125803;27;20509;-66
2022/02/07 06:08:32;;;;;;;4.20;1.60;;;2.60;99.70;;;;;;5129641;27;20518;-65
2022/02/07 06:11:00;;;;;;;5.57;1.70;;;2.40;99.70;;;;;;5126717;27;20917;-65
2022/02/07 06:13:28;;;;;;;6.37;2.03;;;2.60;99.70;;;;;;5118464;27;20460;-65
2022/02/07 06:15:57;;;;;;;5.20;1.90;;;2.60;99.70;;;;;;5120646;27;20978;-65
2022/02/07 06:18:24;;;;;;;8.13;1.80;;;2.70;99.70;;;;;;5121849;27;20494;-66
2022/02/07 06:20:55;;;;;;;5.90;2.00;;;2.70;99.70;;;;;;5130167;27;20452;-66
2022/02/07 06:23:21;;;;;;;5.77;1.47;;;2.70;99.70;;;;;;5129719;27;20869;-66
2022/02/07 06:25:48;;;;;;;4.87;1.40;;;2.90;99.70;;;;;;5130267;27;20436;-66
2022/02/07 06:28:15;;;;;;;4.37;1.70;;;2.80;99.70;;;;;;5130105;27;20471;-65
2022/02/07 06:30:43;;;;;;;6.00;1.60;;;2.90;99.70;;;;;;5130621;27;20832;-65
2022/02/07 06:33:10;;;;;;;3.80;1.47;;;2.80;99.70;;;;;;5130543;27;21083;-65
2022/02/07 06:35:36;;;;;;;5.07;1.60;;;2.80;99.70;;;;;;5131587;27;20486;-66
2022/02/07 06:38:03;;;;;;;5.33;1.50;;;3.00;99.70;;;;;;5132072;27;20512;-66
2022/02/07 06:40:30;;;;;;;6.23;1.63;;;2.80;99.70;;;;;;5132224;27;20835;-65
2022/02/07 06:42:57;;;;;;;3.27;1.33;;;2.80;99.70;;;;;;5132200;27;20440;-65
2022/02/07 06:45:23;;;;;;;6.53;1.80;;;2.80;99.70;;;;;;5132845;27;20436;-66
2022/02/07 06:47:51;;;;;;;5.40;1.70;;;2.90;99.70;;;;;;5136051;27;20471;-65
2022/02/07 06:50:18;;;;;;;5.00;1.70;;;2.90;99.70;;;;;;5135885;27;20954;-66
2022/02/07 06:52:45;;;;;;;8.77;1.77;;;2.90;99.70;;;;;;5136234;27;20849;-66
2022/02/07 06:55:12;;;;;;;7.33;1.80;;;2.90;99.70;;;;;;5135723;27;20484;-65
2022/02/07 06:57:38;;;;;;;3.23;1.90;;;3.00;99.70;;;;;;5136017;27;20439;-65
2022/02/07 07:00:09;;;;;;;8.10;1.90;;;2.90;99.70;;;;;;5135600;27;20436;-66
2022/02/07 07:02:36;;;;;;;4.00;1.63;;;3.00;99.70;;;;;;5135675;27;20448;-66
2022/02/07 07:05:09;;;;;;;8.20;1.90;;;2.90;99.70;;;;;;5135662;27;20527;-66
2022/02/07 07:07:36;;;;;;;5.13;1.60;;;2.90;99.70;;;;;;5136066;27;20758;-65
2022/02/07 07:10:03;;;;;;;7.80;2.00;;;2.90;99.70;;;;;;5135945;27;20440;-66
2022/02/07 07:12:30;;;;;;;3.70;1.60;;;2.90;99.70;;;;;;5135715;27;20733;-65
2022/02/07 07:15:07;;;;;;;4.67;1.90;;;2.90;99.70;;;;;;5135413;27;20472;-65
2022/02/07 07:17:34;;;;;;;4.10;1.80;;;3.00;99.70;;;;;;5135717;27;20945;-66
2022/02/07 07:20:02;;;;;;;4.50;1.60;;;3.10;99.70;;;;;;5135688;27;20444;-65
2022/02/07 07:22:31;;;;;;;4.60;1.70;;;3.10;99.70;;;;;;5135641;27;20444;-66
2022/02/07 07:24:58;;;;;;;8.83;1.73;;;3.20;99.70;;;;;;5135069;27;20455;-65
2022/02/07 07:27:28;;;;;;;4.50;1.70;;;3.10;99.70;;;;;;5135707;27;20942;-66
2022/02/07 07:29:55;;;;;;;4.53;1.60;;;3.10;99.70;;;;;;5135455;27;20448;-66
2022/02/07 07:32:26;;;;;;;11.63;2.10;;;3.20;99.70;;;;;;5135615;27;20819;-66
2022/02/07 07:34:53;;;;;;;6.07;1.63;;;3.10;99.70;;;;;;5135231;27;20858;-65
2022/02/07 07:37:20;;;;;;;14.17;2.10;;;3.10;99.70;;;;;;5135567;27;20466;-66
2022/02/07 07:39:48;;;;;;;7.53;1.90;;;3.10;99.70;;;;;;5135283;27;20464;-65
2022/02/07 07:42:15;;;;;;;5.23;1.90;;;3.10;99.70;;;;;;5135368;27;20445;-65
2022/02/07 07:44:42;;;;;;;5.37;1.53;;;3.10;99.70;;;;;;5135416;27;20513;-66
2022/02/07 07:47:12;;;;;;;6.93;2.00;;;3.10;99.70;;;;;;5134898;27;20454;-65
2022/02/07 07:49:45;;;;;;;8.27;2.27;;;3.30;99.70;;;;;;5135038;27;20890;-65
2022/02/07 07:52:14;;;;;;;5.03;1.80;;;3.20;99.70;;;;;;5135070;27;20927;-66
2022/02/07 07:54:53;;;;;;;7.10;2.00;;;3.20;99.70;;;;;;5135188;27;20475;-65
2022/02/07 08:02:53;;;;;;;9.33;1.90;;;3.10;99.70;;;;;;5112462;28;20440;-66
2022/02/07 08:05:32;;;;;;;5.40;2.20;;;3.10;99.70;;;;;;5112492;28;20481;-67
2022/02/07 08:08:08;;;;;;;7.03;2.23;;;3.20;99.70;;;;;;5112917;28;20476;-66
2022/02/07 08:10:51;;;;;;;6.13;2.20;;;3.30;99.70;;;;;;5112699;28;20544;-67
2022/02/07 08:13:19;;;;;;;5.80;2.80;;;3.50;99.70;;;;;;5108934;28;20959;-65
2022/02/07 08:15:46;;;;;;;6.77;2.00;;;3.70;99.70;;;;;;5100111;28;20474;-65
2022/02/07 08:18:13;;;;;;;4.87;1.90;;;3.70;99.70;;;;;;5107592;28;20446;-66
2022/02/07 08:20:40;;;;;;;7.40;2.13;;;3.70;99.70;;;;;;5109319;28;20445;-66
2022/02/07 08:23:07;;;;;;;9.20;2.30;;;3.70;99.70;;;;;;5109431;28;20453;-66
2022/02/07 08:25:34;;;;;;;7.70;2.00;;;3.70;99.70;;;;;;5111469;28;20441;-66
2022/02/07 08:28:01;;;;;;;7.13;2.40;;;3.70;99.70;;;;;;5109844;28;21085;-67
2022/02/07 08:30:29;;;;;;;14.60;2.73;;;3.70;99.70;;;;;;5112144;28;20521;-65
2022/02/07 08:32:57;;;;;;;7.33;2.23;;;3.80;99.70;;;;;;5110495;28;20975;-66
2022/02/07 08:35:24;;;;;;;5.70;2.17;;;3.90;99.70;;;;;;5111796;28;20559;-66
2022/02/07 08:37:51;;;;;;;4.50;2.10;;;3.70;99.70;;;;;;5110811;28;20959;-66
2022/02/07 08:40:19;;;;;;;6.70;2.10;;;3.90;99.70;;;;;;5111840;28;20472;-66
2022/02/07 08:42:45;;;;;;;5.37;2.30;;;3.80;99.70;;;;;;5111600;28;20445;-66
2022/02/07 08:45:14;;;;;;;4.40;1.63;;;4.00;99.70;;;;;;5110567;28;20997;-65
2022/02/07 08:47:42;;;;;;;6.20;1.90;;;4.10;99.70;;;;;;5111830;28;20470;-66
2022/02/07 08:50:10;;;;;;;4.30;1.70;;;4.20;99.70;;;;;;5110254;28;20465;-66
2022/02/07 08:52:40;;;;;;;7.20;2.07;;;4.20;99.70;;;;;;5111807;28;20474;-66
2022/02/07 08:55:09;;;;;;;5.17;1.80;;;4.30;99.70;;;;;;5094621;28;20907;-66
2022/02/07 08:57:40;;;;;;;7.30;1.97;;;4.40;99.70;;;;;;5094036;28;20446;-65
2022/02/07 09:00:15;;;;;;;8.17;2.57;;;4.40;99.70;;;;;;5109314;28;20485;-65
2022/02/07 09:03:08;;;;;;;5.30;2.90;;;4.30;99.70;;;;;;5111291;28;20832;-65
2022/02/07 09:05:45;;;;;;;4.10;2.27;;;4.50;99.70;;;;;;5102976;28;20525;-65
2022/02/07 09:08:25;;;;;;;11.60;2.50;;;4.60;99.70;;;;;;5094801;28;20445;-66
2022/02/07 09:10:54;;;;;;;10.90;2.17;;;4.60;99.70;;;;;;5093491;28;20446;-66
2022/02/07 09:13:28;;;;;;;7.20;1.83;;;4.50;99.70;;;;;;5095135;28;20450;-66
2022/02/07 09:16:03;;;;;;;7.80;3.27;;;4.60;99.70;;;;;;5093541;28;20485;-66
2022/02/07 09:18:31;;;;;;;4.73;2.43;;;4.50;99.70;;;;;;5094588;28;20441;-65
2022/02/07 09:21:00;;;;;;;6.07;1.80;;;4.60;99.70;;;;;;5093725;28;20453;-66
2022/02/07 09:23:27;;;;;;;6.40;1.73;;;4.50;99.70;;;;;;5109765;28;20972;-66
2022/02/07 09:25:54;;;;;;;8.27;2.13;;;4.50;99.70;;;;;;5110857;28;20451;-66
2022/02/07 09:28:21;;;;;;;8.23;2.10;;;4.50;99.70;;;;;;5108722;28;20449;-65
2022/02/07 09:30:47;;;;;;;8.50;2.20;;;4.60;99.70;;;;;;5110979;28;20915;-66
2022/02/07 09:33:14;;;;;;;6.67;1.70;;;4.60;99.70;;;;;;5109312;28;20462;-66
2022/02/07 09:35:42;;;;;;;8.70;1.93;;;4.60;99.70;;;;;;5110588;28;20483;-66
2022/02/07 09:38:09;;;;;;;8.83;2.40;;;4.40;99.70;;;;;;5109272;28;20456;-65
2022/02/07 09:40:36;;;;;;;8.40;2.07;;;4.30;99.70;;;;;;5110797;28;20521;-66
2022/02/07 09:43:05;;;;;;;8.20;2.67;;;4.30;99.70;;;;;;5109186;28;20464;-66
2022/02/07 09:45:35;;;;;;;10.43;2.03;;;4.30;99.70;;;;;;5110559;28;20447;-66
2022/02/07 09:48:05;;;;;;;8.83;2.40;;;4.50;99.70;;;;;;5108866;28;20457;-67
2022/02/07 09:50:32;;;;;;;4.20;2.00;;;4.50;99.70;;;;;;5110621;28;20523;-66
2022/02/07 09:53:00;;;;;;;4.90;2.00;;;4.50;99.70;;;;;;5109043;28;20481;-66
2022/02/07 09:55:27;;;;;;;5.63;1.77;;;4.60;99.70;;;;;;5110012;28;20472;-65
2022/02/07 09:57:55;;;;;;;5.33;2.13;;;4.60;99.70;;;;;;5108856;28;20452;-66
2022/02/07 10:00:28;;;;;;;4.60;1.80;;;4.70;99.70;;;;;;5092097;28;20817;-66
2022/02/07 10:03:06;;;;;;;4.93;1.90;;;4.80;99.70;;;;;;5093253;28;21020;-66
2022/02/07 10:05:44;;;;;;;9.70;2.87;;;5.70;99.70;;;;;;5103324;28;20462;-65
2022/02/07 10:08:17;;;;;;;8.10;2.70;;;5.70;99.70;;;;;;5092022;28;20446;-65
2022/02/07 10:10:58;;;;;;;6.43;2.37;;;5.60;99.70;;;;;;5109745;28;20464;-66
2022/02/07 10:13:39;;;;;;;5.80;1.93;;;5.40;99.70;;;;;;5100078;28;20465;-66
2022/02/07 10:16:24;;;;;;;7.33;2.43;;;5.20;99.70;;;;;;5093653;28;20481;-66
2022/02/07 10:19:07;;;;;;;7.40;2.20;;;5.00;99.70;;;;;;5092658;28;20556;-66
2022/02/07 10:22:01;;;;;;;11.20;3.60;;;5.30;99.70;;;;;;5092367;28;20481;-66
2022/02/07 10:38:39;;;;;;;8.07;2.10;;;5.10;99.70;;;;;;5059857;28;20433;-66
2022/02/07 10:41:22;;;;;;;5.77;2.40;;;5.20;99.70;;;;;;5090857;28;20925;-66
2022/02/07 10:44:08;;;;;;;5.50;2.23;;;5.20;99.70;;;;;;5091373;28;20445;-66
2022/02/07 10:46:36;;;;;;;10.07;2.20;;;5.10;99.70;;;;;;5091036;28;20446;-66
2022/02/07 10:49:10;;;;;;;6.10;2.33;;;5.10;99.70;;;;;;5091140;28;20465;-66
2022/02/07 10:51:40;;;;;;;5.93;2.50;;;4.90;99.70;;;;;;5091321;28;20474;-66
2022/02/07 10:54:08;;;;;;;8.33;2.20;;;4.90;99.70;;;;;;5091246;28;20445;-66
2022/02/07 10:56:42;;;;;;;8.00;1.90;;;5.10;99.70;;;;;;5090040;28;20844;-66
2022/02/07 10:59:13;;;;;;;10.40;2.20;;;5.00;99.70;;;;;;5090415;28;20474;-66
2022/02/07 11:02:27;;;;;;;5.80;2.27;;;5.10;99.70;;;;;;5091152;28;20877;-66
2022/02/07 11:04:55;;;;;;;8.60;2.10;;;5.20;99.70;;;;;;5091158;28;20462;-66
2022/02/07 11:07:23;;;;;;;7.73;2.10;;;5.20;99.70;;;;;;5090695;28;20534;-67
2022/02/07 11:10:18;;;;;;;7.00;2.20;;;5.20;99.70;;;;;;5091044;28;20516;-66
2022/02/07 11:13:11;;;;;;;7.00;2.10;;;5.30;99.70;;;;;;5091119;28;20438;-66
2022/02/07 11:15:43;;;;;;;6.03;2.27;;;5.20;99.70;;;;;;5090720;28;20484;-66
2022/02/07 11:18:24;;;;;;;5.50;2.00;;;5.20;99.70;;;;;;5091368;28;20453;-66
2022/02/07 11:21:11;;;;;;;5.57;2.00;;;5.20;99.70;;;;;;5090926;28;20449;-66
2022/02/07 11:23:48;;;;;;;7.53;2.30;;;5.20;99.70;;;;;;5090452;28;20477;-66
2022/02/07 11:26:39;;;;;;;5.77;1.93;;;5.10;99.70;;;;;;5090658;28;20881;-66
2022/02/07 11:29:36;;;;;;;7.40;1.87;;;5.00;99.70;;;;;;5088281;28;20849;-64
2022/02/07 11:32:04;;;;;;;5.47;2.00;;;5.10;99.70;;;;;;5087222;28;20452;-66
2022/02/07 11:34:42;;;;;;;7.30;2.20;;;5.10;99.70;;;;;;5089818;28;20442;-65
2022/02/07 11:37:21;;;;;;;6.13;2.33;;;5.10;99.70;;;;;;5090873;28;20489;-66
2022/02/07 11:39:50;;;;;;;5.63;1.97;;;5.00;99.70;;;;;;5093057;28;20552;-66
2022/02/07 11:42:17;;;;;;;4.37;1.90;;;4.90;99.70;;;;;;5093659;28;20491;-67
2022/02/07 11:45:24;;;;;;;4.80;1.90;;;5.00;99.70;;;;;;5094254;28;20449;-66
2022/02/07 11:47:57;;;;;;;8.90;1.97;;;5.00;99.70;;;;;;5093914;28;20437;-65
2022/02/07 11:50:27;;;;;;;5.93;2.70;;;5.00;99.70;;;;;;5090760;28;20461;-63
2022/02/07 11:53:00;;;;;;;5.20;2.20;;;5.00;99.70;;;;;;5092031;28;21034;-66
2022/02/07 11:55:33;;;;;;;6.60;2.03;;;5.00;99.70;;;;;;5090980;28;20438;-66
2022/02/07 11:58:07;;;;;;;5.83;2.50;;;5.00;99.70;;;;;;5091871;28;20434;-65
2022/02/07 12:00:43;;;;;;;7.13;1.90;;;5.00;99.70;;;;;;5092233;28;21038;-65
2022/02/07 12:03:14;;;;;;;6.50;1.80;;;4.90;99.70;;;;;;5094220;28;20540;-65
2022/02/07 12:05:45;;;;;;;5.90;2.00;;;4.80;99.70;;;;;;5094272;28;20471;-65
2022/02/07 12:08:17;;;;;;;6.63;1.70;;;4.80;99.70;;;;;;5094328;28;20438;-65
2022/02/07 12:11:04;;;;;;;6.60;1.87;;;4.80;99.70;;;;;;5093946;28;20813;-66
2022/02/07 12:13:34;;;;;;;7.80;2.30;;;4.80;99.70;;;;;;5093908;28;20441;-66
2022/02/07 12:16:06;;;;;;;3.87;1.53;;;5.00;99.70;;;;;;5093832;28;20481;-66
2022/02/07 12:18:34;;;;;;;5.70;1.80;;;5.00;99.70;;;;;;5093975;28;20452;-66
2022/02/07 12:21:19;;;;;;;6.00;2.13;;;4.90;99.70;;;;;;5093669;28;20446;-66
2022/02/07 12:23:50;;;;;;;6.60;2.17;;;4.90;99.70;;;;;;5093812;28;20437;-66
2022/02/07 12:26:17;;;;;;;6.20;1.73;;;4.90;99.70;;;;;;5093747;28;20442;-66
2022/02/07 12:28:47;;;;;;;8.67;2.30;;;5.00;99.70;;;;;;5093141;28;20505;-66
2022/02/07 12:31:19;;;;;;;5.80;2.17;;;5.00;99.70;;;;;;5093547;28;20449;-66
2022/02/07 12:33:53;;;;;;;8.60;2.20;;;4.90;99.70;;;;;;5093598;28;20446;-66
2022/02/07 12:36:21;;;;;;;5.50;1.90;;;5.10;99.70;;;;;;5093228;28;20481;-66
2022/02/07 12:38:47;;;;;;;8.33;2.00;;;5.10;99.70;;;;;;5093348;28;20973;-66
2022/02/07 12:41:16;;;;;;;5.23;2.10;;;5.10;99.70;;;;;;5092994;28;20457;-65
2022/02/07 12:43:45;;;;;;;6.40;3.00;;;5.10;99.70;;;;;;5093113;28;20452;-66
2022/02/07 12:46:14;;;;;;;15.17;5.37;;;5.10;99.70;;;;;;5093161;28;20445;-65
2022/02/07 12:48:49;;;;;;;6.60;2.60;;;5.20;99.70;;;;;;5093200;28;20473;-66
2022/02/07 12:51:20;;;;;;;7.30;2.10;;;5.30;99.70;;;;;;5092961;28;20445;-66
2022/02/07 12:53:47;;;;;;;7.07;2.00;;;5.30;99.70;;;;;;5093291;28;20539;-65
2022/02/07 12:56:14;;;;;;;6.50;1.80;;;5.30;99.70;;;;;;5093047;28;20484;-66
2022/02/07 12:58:43;;;;;;;4.03;2.00;;;5.30;99.70;;;;;;5092864;28;20988;-66
2022/02/07 13:01:24;;;;;;;8.27;2.30;;;5.30;99.70;;;;;;5092816;28;20507;-66
2022/02/07 13:03:54;;;;;;;6.23;2.20;;;5.30;99.70;;;;;;5092978;28;20820;-65
2022/02/07 13:06:28;;;;;;;9.63;2.53;;;5.30;99.70;;;;;;5091871;28;20815;-66
2022/02/07 13:08:57;;;;;;;6.40;2.43;;;5.50;99.70;;;;;;5092680;28;20461;-62
2022/02/07 13:11:26;;;;;;;5.50;2.00;;;5.40;99.70;;;;;;5091732;28;20473;-65
2022/02/07 13:13:54;;;;;;;9.17;2.40;;;5.50;99.70;;;;;;5092702;28;20445;-66
2022/02/07 13:16:22;;;;;;;6.20;2.40;;;5.30;99.70;;;;;;5092411;28;20481;-66
2022/02/07 13:18:50;;;;;;;6.00;2.23;;;5.20;99.70;;;;;;5092457;28;20469;-65
2022/02/07 13:21:18;;;;;;;7.73;2.67;;;5.20;99.70;;;;;;5092337;28;20445;-66
2022/02/07 13:23:47;;;;;;;6.40;2.63;;;5.20;99.70;;;;;;5092482;28;20499;-66
2022/02/07 13:26:15;;;;;;;7.83;2.20;;;5.20;99.70;;;;;;5092239;28;20446;-66
2022/02/07 13:28:43;;;;;;;8.47;2.70;;;5.20;99.70;;;;;;5092483;28;20462;-65
2022/02/07 13:31:11;;;;;;;6.77;2.30;;;5.20;99.70;;;;;;5092250;28;20453;-66
2022/02/07 13:33:48;;;;;;;8.97;2.40;;;5.10;99.70;;;;;;5092327;28;20453;-66
2022/02/07 13:36:26;;;;;;;8.23;2.17;;;5.00;99.70;;;;;;5092016;28;20499;-66
2022/02/07 13:39:00;;;;;;;8.53;2.80;;;5.10;99.70;;;;;;5092251;28;20485;-66
2022/02/07 13:41:27;;;;;;;9.90;2.67;;;5.10;99.70;;;;;;5092107;28;20441;-66
2022/02/07 13:43:58;;;;;;;5.30;2.20;;;5.10;99.70;;;;;;5092246;28;20446;-65
2022/02/07 13:46:28;;;;;;;10.30;2.70;;;5.10;99.70;;;;;;5091874;28;20449;-66
2022/02/07 13:48:57;;;;;;;6.83;2.40;;;5.10;99.70;;;;;;5092187;28;20506;-66
2022/02/07 13:51:26;;;;;;;6.60;2.73;;;5.20;99.70;;;;;;5091561;28;20442;-66
2022/02/07 13:53:55;;;;;;;5.60;2.33;;;5.10;99.70;;;;;;5096285;28;20445;-65
2022/02/07 13:56:30;;;;;;;9.13;2.27;;;5.20;99.70;;;;;;5105651;28;20812;-63
2022/02/07 13:59:11;;;;;;;6.20;2.33;;;5.20;99.70;;;;;;5097987;28;20457;-61
2022/02/07 14:01:38;;;;;;;6.13;2.40;;;5.10;99.70;;;;;;5086562;28;21091;-63
2022/02/07 14:04:15;;;;;;;5.37;2.67;;;5.30;99.70;;;;;;5131453;22;20496;-66
2022/02/07 14:06:48;;;;;;;6.83;2.23;;;5.30;99.70;;;;;;5110310;28;20417;-66
2022/02/07 14:09:16;;;;;;;5.47;2.40;;;5.20;99.70;;;;;;5111900;28;20516;-66
2022/02/07 14:11:43;;;;;;;5.97;2.20;;;5.50;99.70;;;;;;5111721;28;20936;-67
2022/02/07 14:14:10;;;;;;;6.43;2.33;;;5.40;99.70;;;;;;5111847;27;20556;-66
2022/02/07 14:16:36;;;;;;;4.47;2.20;;;5.30;99.70;;;;;;5111502;28;20484;-68
2022/02/07 14:19:03;;;;;;;4.90;2.30;;;5.30;99.70;;;;;;5111719;28;20441;-66
2022/02/07 14:21:31;;;;;;;9.73;2.63;;;5.20;99.70;;;;;;5110933;28;20447;-67
2022/02/07 14:24:00;;;;;;;8.57;2.40;;;5.40;99.70;;;;;;5111545;28;20898;-66
2022/02/07 14:26:34;;;;;;;6.57;2.57;;;5.30;99.70;;;;;;5111381;28;20445;-66
2022/02/07 14:29:01;;;;;;;6.90;2.30;;;5.30;99.70;;;;;;5111748;28;20952;-66
2022/02/07 14:31:29;;;;;;;6.33;2.17;;;5.30;99.70;;;;;;5111586;28;20808;-67
2022/02/07 14:33:56;;;;;;;6.93;2.27;;;5.20;99.70;;;;;;5111538;28;20513;-66
2022/02/07 14:36:23;;;;;;;7.10;2.00;;;5.20;99.70;;;;;;5110620;28;20464;-66
2022/02/07 14:38:50;;;;;;;6.13;2.23;;;5.20;99.70;;;;;;5111555;28;20452;-66